createdAt,value
2019-03-03T00:00:35.655Z,81.70
2019-03-03T00:03:04.454Z,81.20
2019-03-03T00:05:32.877Z,80.60
2019-03-03T00:08:01.335Z,80.70
2019-03-03T00:10:30.550Z,80.60
2019-03-03T00:12:59.390Z,80.10
2019-03-03T00:15:27.821Z,80.10
2019-03-03T00:17:56.560Z,79.80
2019-03-03T00:20:25.001Z,80.00
2019-03-03T00:22:53.732Z,79.90
2019-03-03T00:25:22.182Z,80.00
2019-03-03T00:27:50.634Z,79.80
2019-03-03T00:30:22.291Z,80.10
2019-03-03T00:32:51.126Z,79.90
2019-03-03T00:35:19.919Z,80.10
2019-03-03T00:38:08.570Z,80.30
2019-03-03T00:40:41.278Z,79.80
2019-03-03T00:43:14.010Z,79.60
2019-03-03T00:45:44.558Z,79.50
2019-03-03T00:48:26.566Z,78.90
2019-03-03T00:51:08.506Z,78.80
2019-03-03T00:53:50.553Z,78.60
2019-03-03T00:56:20.970Z,78.20
2019-03-03T00:58:51.082Z,78.30
2019-03-03T01:01:36.353Z,78.20
2019-03-03T01:04:06.442Z,77.70
2019-03-03T01:06:42.566Z,77.30
2019-03-03T01:09:40.735Z,76.50
2019-03-03T01:12:19.672Z,76.80
2019-03-03T01:14:52.507Z,76.00
2019-03-03T01:17:22.579Z,76.00
2019-03-03T01:20:07.584Z,76.30
2019-03-03T01:22:40.303Z,75.80
2019-03-03T01:25:09.265Z,75.90
2019-03-03T01:27:37.714Z,75.50
2019-03-03T01:30:09.806Z,75.60
2019-03-03T01:32:38.234Z,75.50
2019-03-03T01:35:09.129Z,75.50
2019-03-03T01:37:38.028Z,75.70
2019-03-03T01:40:09.420Z,75.90
2019-03-03T01:42:37.843Z,76.20
2019-03-03T01:45:15.977Z,76.30
2019-03-03T01:47:44.422Z,76.20
2019-03-03T01:50:13.691Z,76.70
2019-03-03T01:52:42.131Z,76.90
2019-03-03T01:55:14.278Z,77.10
2019-03-03T01:57:42.721Z,77.00
2019-03-03T02:00:23.529Z,77.00
2019-03-03T02:02:53.089Z,77.00
2019-03-03T02:05:21.543Z,76.90
2019-03-03T02:07:50.327Z,77.10
2019-03-03T02:10:21.934Z,76.70
2019-03-03T02:12:50.950Z,76.80
2019-03-03T02:15:19.581Z,76.50
2019-03-03T02:17:48.045Z,76.80
2019-03-03T02:20:16.494Z,76.40
2019-03-03T02:22:45.002Z,76.20
2019-03-03T02:25:14.991Z,76.20
2019-03-03T02:27:43.413Z,76.30
2019-03-03T02:30:18.126Z,76.30
2019-03-03T02:32:46.567Z,76.30
2019-03-03T02:35:15.300Z,75.90
2019-03-03T02:37:44.072Z,76.00
2019-03-03T02:40:15.590Z,76.20
2019-03-03T02:42:44.382Z,76.00
2019-03-03T02:45:15.508Z,75.80
2019-03-03T02:47:44.107Z,75.80
2019-03-03T02:50:15.058Z,75.80
2019-03-03T02:52:43.769Z,75.90
2019-03-03T02:55:16.735Z,76.00
2019-03-03T02:57:45.179Z,75.90
2019-03-03T03:00:22.612Z,76.00
2019-03-03T03:02:55.841Z,76.20
2019-03-03T03:05:34.263Z,76.50
2019-03-03T03:08:04.339Z,76.50
2019-03-03T03:10:50.375Z,76.70
2019-03-03T03:13:32.357Z,76.90
2019-03-03T03:16:02.437Z,77.00
2019-03-03T03:18:35.547Z,77.10
2019-03-03T03:21:05.624Z,77.30
2019-03-03T03:23:35.709Z,77.30
2019-03-03T03:26:14.720Z,77.60
2019-03-03T03:28:47.567Z,77.60
2019-03-03T03:31:17.652Z,77.70
2019-03-03T03:33:51.051Z,77.90
2019-03-03T03:36:24.147Z,77.90
2019-03-03T03:38:54.551Z,78.20
2019-03-03T03:41:36.828Z,78.30
2019-03-03T03:44:09.962Z,78.50
2019-03-03T03:46:42.989Z,78.60
2019-03-03T03:49:22.097Z,78.70
2019-03-03T03:52:08.198Z,78.80
2019-03-03T03:54:44.164Z,78.60
2019-03-03T03:57:26.205Z,78.70
2019-03-03T04:00:08.017Z,78.70
2019-03-03T04:02:46.936Z,78.60
2019-03-03T04:05:19.735Z,78.70
2019-03-03T04:08:02.218Z,78.90
2019-03-03T04:10:35.219Z,78.90
2019-03-03T04:13:17.505Z,79.10
2019-03-03T04:15:47.613Z,79.30
2019-03-03T04:18:17.715Z,79.50
2019-03-03T04:20:51.229Z,79.60
2019-03-03T04:23:21.307Z,79.60
2019-03-03T04:26:09.618Z,79.60
2019-03-03T04:28:58.032Z,79.60
2019-03-03T04:31:28.470Z,79.60
2019-03-03T04:34:01.201Z,79.50
2019-03-03T04:36:40.336Z,79.40
2019-03-03T04:39:10.690Z,79.40
2019-03-03T04:41:57.263Z,79.40
2019-03-03T04:44:27.355Z,79.20
2019-03-03T04:46:57.472Z,78.90
2019-03-03T04:49:30.383Z,78.90
2019-03-03T04:52:16.543Z,78.50
2019-03-03T04:55:03.113Z,78.50
2019-03-03T04:57:36.215Z,78.10
2019-03-03T05:00:09.629Z,78.20
2019-03-03T05:02:49.256Z,78.00
2019-03-03T05:05:19.347Z,78.00
2019-03-03T05:08:05.244Z,77.60
2019-03-03T05:10:51.459Z,77.70
2019-03-03T05:13:29.797Z,77.80
2019-03-03T05:16:16.297Z,77.40
2019-03-03T05:18:49.066Z,77.40
2019-03-03T05:21:17.820Z,77.20
2019-03-03T05:23:46.259Z,76.90
2019-03-03T05:26:14.711Z,76.70
2019-03-03T05:28:43.171Z,76.40
2019-03-03T05:31:11.597Z,76.20
2019-03-03T05:33:40.077Z,75.90
2019-03-03T05:36:08.798Z,75.90
2019-03-03T05:38:37.583Z,76.20
2019-03-03T05:41:06.380Z,76.20
2019-03-03T05:43:34.823Z,76.00
2019-03-03T05:46:03.252Z,76.20
2019-03-03T05:48:32.128Z,76.20
2019-03-03T05:51:00.559Z,75.80
2019-03-03T05:53:29.017Z,75.70
2019-03-03T05:55:57.467Z,75.60
2019-03-03T05:58:25.927Z,75.40
2019-03-03T06:00:54.379Z,75.30
2019-03-03T06:03:23.199Z,75.20
2019-03-03T06:05:51.638Z,75.30
2019-03-03T06:08:20.122Z,75.40
2019-03-03T06:10:49.058Z,75.50
2019-03-03T06:13:17.858Z,75.80
2019-03-03T06:15:46.620Z,76.20
2019-03-03T06:18:15.071Z,76.80
2019-03-03T06:20:43.527Z,77.60
2019-03-03T06:23:11.966Z,77.90
2019-03-03T06:25:40.403Z,78.10
2019-03-03T06:28:08.927Z,78.50
2019-03-03T06:30:37.364Z,79.10
2019-03-03T06:33:05.807Z,79.30
2019-03-03T06:35:34.266Z,79.70
2019-03-03T06:38:02.707Z,79.20
2019-03-03T06:40:31.421Z,79.50
2019-03-03T06:43:00.207Z,79.70
2019-03-03T06:45:28.635Z,79.50
2019-03-03T06:47:57.488Z,79.70
2019-03-03T06:50:25.950Z,79.80
2019-03-03T06:52:54.578Z,80.00
2019-03-03T06:55:23.324Z,79.90
2019-03-03T06:57:51.763Z,79.90
2019-03-03T07:00:20.588Z,80.10
2019-03-03T07:02:49.031Z,80.10
2019-03-03T07:05:17.487Z,80.20
2019-03-03T07:07:45.927Z,80.30
2019-03-03T07:10:14.641Z,80.70
2019-03-03T07:12:43.112Z,80.30
2019-03-03T07:15:14.169Z,80.20
2019-03-03T07:17:42.616Z,80.50
2019-03-03T07:20:13.011Z,80.30
2019-03-03T07:22:41.491Z,80.10
2019-03-03T07:25:13.552Z,80.00
2019-03-03T07:27:41.998Z,80.00
2019-03-03T07:30:13.091Z,79.90
2019-03-03T07:32:43.542Z,79.70
2019-03-03T07:35:12.831Z,79.50
2019-03-03T07:37:41.270Z,79.70
2019-03-03T07:40:10.083Z,79.80
2019-03-03T07:42:38.519Z,79.90
2019-03-03T07:45:10.038Z,79.40
2019-03-03T07:47:39.098Z,79.20
2019-03-03T07:50:08.818Z,79.40
2019-03-03T07:52:37.244Z,79.30
2019-03-03T07:55:08.956Z,78.90
2019-03-03T07:57:37.848Z,78.60
2019-03-03T08:00:17.528Z,78.90
2019-03-03T08:02:45.952Z,78.70
2019-03-03T08:05:14.395Z,78.80
2019-03-03T08:07:43.248Z,78.70
2019-03-03T08:10:13.024Z,78.10
2019-03-03T08:12:41.459Z,78.10
2019-03-03T08:15:12.536Z,78.10
2019-03-03T08:17:41.360Z,78.50
2019-03-03T08:20:12.387Z,78.10
2019-03-03T08:22:40.802Z,77.60
2019-03-03T08:25:10.427Z,77.30
2019-03-03T08:27:39.107Z,76.90
2019-03-03T08:30:12.983Z,77.60
2019-03-03T08:32:41.435Z,77.20
2019-03-03T08:35:15.994Z,76.90
2019-03-03T08:37:44.434Z,77.00
2019-03-03T08:40:17.375Z,76.80
2019-03-03T08:42:47.235Z,76.50
2019-03-03T08:45:33.515Z,76.70
2019-03-03T08:48:31.825Z,76.60
2019-03-03T08:51:05.091Z,76.70
2019-03-03T08:53:41.479Z,76.50
2019-03-03T08:56:30.139Z,76.40
2019-03-03T08:59:00.607Z,76.60
2019-03-03T09:01:30.832Z,76.50
2019-03-03T09:04:19.003Z,76.50
2019-03-03T09:06:56.370Z,76.20
2019-03-03T09:09:28.864Z,76.50
2019-03-03T09:12:11.844Z,76.60
2019-03-03T09:14:57.155Z,76.80
2019-03-03T09:17:33.027Z,76.30
2019-03-03T09:20:18.383Z,75.60
2019-03-03T09:22:49.327Z,75.40
2019-03-03T09:25:35.835Z,75.20
2019-03-03T09:28:08.579Z,75.50
2019-03-03T09:30:38.832Z,75.90
2019-03-03T09:33:20.869Z,75.50
2019-03-03T09:35:57.241Z,75.20
2019-03-03T09:38:27.712Z,75.30
2019-03-03T09:41:04.018Z,75.10
2019-03-03T09:43:34.127Z,74.40
2019-03-03T09:46:10.547Z,74.90
2019-03-03T09:48:46.710Z,75.10
2019-03-03T09:51:16.842Z,75.10
2019-03-03T09:53:53.191Z,74.90
2019-03-03T09:56:23.633Z,74.90
2019-03-03T09:59:05.559Z,75.30
2019-03-03T10:01:50.488Z,75.30
2019-03-03T10:04:23.451Z,75.10
2019-03-03T10:07:02.479Z,75.10
2019-03-03T10:09:48.663Z,75.90
2019-03-03T10:12:19.132Z,76.30
2019-03-03T10:15:05.307Z,76.20
2019-03-03T10:17:35.843Z,76.40
2019-03-03T10:20:12.208Z,75.60
2019-03-03T10:22:42.262Z,75.70
2019-03-03T10:25:25.442Z,76.30
2019-03-03T10:27:55.623Z,76.20
2019-03-03T10:30:42.254Z,76.00
2019-03-03T10:33:28.686Z,76.00
2019-03-03T10:36:14.252Z,75.80
2019-03-03T10:38:53.440Z,75.40
2019-03-03T10:41:39.751Z,75.70
2019-03-03T10:44:09.794Z,75.40
2019-03-03T10:46:56.511Z,75.60
2019-03-03T10:49:32.315Z,75.40
2019-03-03T10:52:13.986Z,75.20
2019-03-03T10:54:46.707Z,75.00
2019-03-03T10:57:35.435Z,74.80
2019-03-03T11:00:07.597Z,74.80
2019-03-03T11:02:40.936Z,75.20
2019-03-03T11:05:17.462Z,75.20
2019-03-03T11:08:03.938Z,75.10
2019-03-03T11:10:34.003Z,75.20
2019-03-03T11:13:09.781Z,74.40
2019-03-03T11:15:42.883Z,74.20
2019-03-03T11:18:29.419Z,74.30
2019-03-03T11:20:59.544Z,74.20
2019-03-03T11:23:29.683Z,74.20
2019-03-03T11:25:59.792Z,74.40
2019-03-03T11:28:30.140Z,75.10
2019-03-03T11:31:16.736Z,74.80
2019-03-03T11:33:47.369Z,74.90
2019-03-03T11:36:20.590Z,74.90
2019-03-03T11:39:02.723Z,74.50
2019-03-03T11:41:33.083Z,74.90
2019-03-03T11:44:03.133Z,74.50
2019-03-03T11:46:35.908Z,74.10
2019-03-03T11:49:08.877Z,74.10
2019-03-03T11:51:38.927Z,73.50
2019-03-03T11:54:18.329Z,73.50
2019-03-03T11:56:57.182Z,74.10
2019-03-03T11:59:48.939Z,73.20
2019-03-03T12:02:18.990Z,73.60
2019-03-03T12:04:49.054Z,73.20
2019-03-03T12:07:19.107Z,73.60
2019-03-03T12:09:51.914Z,73.20
2019-03-03T12:12:25.500Z,72.70
2019-03-03T12:15:04.527Z,72.80
2019-03-03T12:17:43.858Z,72.50
2019-03-03T12:20:26.409Z,72.10
2019-03-03T12:22:59.463Z,71.10
2019-03-03T12:25:38.282Z,71.50
2019-03-03T12:28:25.092Z,72.10
2019-03-03T12:31:04.324Z,71.50
2019-03-03T12:33:40.687Z,72.70
2019-03-03T12:36:16.463Z,72.70
2019-03-03T12:38:49.527Z,72.30
2019-03-03T12:41:25.500Z,72.50
2019-03-03T12:44:04.710Z,71.20
2019-03-03T12:46:37.443Z,71.40
2019-03-03T12:49:07.502Z,71.60
2019-03-03T12:51:40.715Z,72.10
2019-03-03T12:54:10.775Z,72.50
2019-03-03T12:56:43.699Z,72.80
2019-03-03T12:59:16.472Z,71.60
2019-03-03T13:01:46.524Z,71.70
2019-03-03T13:04:22.589Z,71.50
2019-03-03T13:07:01.655Z,71.50
2019-03-03T13:09:37.736Z,72.10
2019-03-03T13:12:08.064Z,72.40
2019-03-03T13:14:38.127Z,72.60
2019-03-03T13:17:13.865Z,73.10
2019-03-03T13:19:43.919Z,72.60
2019-03-03T13:22:13.979Z,72.70
2019-03-03T13:24:44.031Z,72.20
2019-03-03T13:27:14.395Z,72.20
2019-03-03T13:29:59.550Z,72.00
2019-03-03T13:32:35.147Z,71.60
2019-03-03T13:35:15.330Z,71.30
2019-03-03T13:37:45.368Z,71.00
2019-03-03T13:40:28.194Z,72.00
2019-03-03T13:42:59.278Z,71.90
2019-03-03T13:45:30.332Z,71.90
2019-03-03T13:47:59.072Z,72.40
2019-03-03T13:50:28.833Z,72.20
2019-03-03T13:52:57.406Z,72.00
2019-03-03T13:55:26.558Z,70.90
2019-03-03T13:57:54.957Z,70.70
2019-03-03T14:00:24.315Z,71.00
2019-03-03T14:02:53.068Z,70.90
2019-03-03T14:05:22.690Z,70.30
2019-03-03T14:07:51.645Z,68.90
2019-03-03T14:10:20.055Z,68.90
2019-03-03T14:12:48.535Z,69.50
2019-03-03T14:15:19.518Z,68.90
2019-03-03T14:17:48.614Z,67.90
2019-03-03T14:20:19.658Z,67.60
2019-03-03T14:22:49.465Z,66.40
2019-03-03T14:25:17.875Z,66.70
2019-03-03T14:27:46.350Z,66.90
2019-03-03T14:30:25.814Z,66.50
2019-03-03T14:32:54.299Z,66.20
2019-03-03T14:35:22.702Z,66.50
2019-03-03T14:37:51.113Z,66.80
2019-03-03T14:40:21.776Z,66.90
2019-03-03T14:42:50.458Z,66.90
2019-03-03T14:45:19.557Z,68.00
2019-03-03T14:47:48.211Z,68.60
2019-03-03T14:50:21.413Z,68.60
2019-03-03T14:52:52.516Z,69.30
2019-03-03T14:55:21.319Z,69.40
2019-03-03T14:57:49.754Z,69.20
2019-03-03T15:00:22.291Z,69.60
2019-03-03T15:02:51.339Z,69.10
2019-03-03T15:05:20.223Z,69.40
2019-03-03T15:07:48.630Z,69.20
2019-03-03T15:10:17.050Z,68.10
2019-03-03T15:12:45.470Z,68.70
2019-03-03T15:15:26.255Z,68.60
2019-03-03T15:17:54.679Z,69.10
2019-03-03T15:20:23.712Z,69.60
2019-03-03T15:22:52.499Z,70.80
2019-03-03T15:25:20.906Z,69.90
2019-03-03T15:27:49.663Z,70.20
2019-03-03T15:30:22.426Z,70.70
2019-03-03T15:32:51.754Z,70.60
2019-03-03T15:35:20.167Z,70.90
2019-03-03T15:37:48.654Z,70.70
2019-03-03T15:40:20.136Z,71.40
2019-03-03T15:42:48.840Z,71.30
2019-03-03T15:45:22.311Z,71.90
2019-03-03T15:47:50.711Z,71.40
2019-03-03T15:50:22.051Z,71.60
2019-03-03T15:52:50.538Z,71.60
2019-03-03T15:55:21.653Z,71.70
2019-03-03T15:57:50.071Z,71.90
2019-03-03T16:00:24.475Z,71.90
2019-03-03T16:02:52.959Z,71.60
2019-03-03T16:05:21.629Z,71.50
2019-03-03T16:07:50.051Z,71.60
2019-03-03T16:10:23.206Z,71.70
2019-03-03T16:12:51.896Z,71.60
2019-03-03T16:15:20.683Z,71.40
2019-03-03T16:17:49.471Z,71.90
2019-03-03T16:20:24.078Z,71.90
2019-03-03T16:22:52.773Z,72.20
2019-03-03T16:25:23.667Z,72.00
2019-03-03T16:27:52.353Z,72.00
2019-03-03T16:30:22.511Z,72.20
2019-03-03T16:32:50.934Z,71.90
2019-03-03T16:35:19.736Z,72.20
2019-03-03T16:37:48.333Z,72.00
2019-03-03T16:40:26.671Z,72.00
2019-03-03T16:42:55.089Z,72.20
2019-03-03T16:45:23.490Z,72.50
2019-03-03T16:47:52.031Z,72.50
2019-03-03T16:50:24.583Z,72.20
2019-03-03T16:52:53.081Z,72.40
2019-03-03T16:55:22.164Z,72.30
2019-03-03T16:57:50.592Z,72.10
2019-03-03T17:00:26.746Z,72.50
2019-03-03T17:02:55.170Z,72.70
2019-03-03T17:05:30.226Z,72.50
2019-03-03T17:07:58.657Z,72.50
2019-03-03T17:10:27.360Z,72.60
2019-03-03T17:12:56.055Z,72.60
2019-03-03T17:15:29.224Z,72.60
2019-03-03T17:17:57.931Z,72.60
2019-03-03T17:20:26.351Z,72.70
2019-03-03T17:22:54.770Z,73.00
2019-03-03T17:25:28.363Z,73.10
2019-03-03T17:27:56.813Z,73.00
2019-03-03T17:30:28.790Z,73.00
2019-03-03T17:32:57.508Z,72.80
2019-03-03T17:35:26.186Z,72.70
2019-03-03T17:37:56.520Z,72.70
2019-03-03T17:40:27.002Z,72.80
2019-03-03T17:42:55.423Z,72.80
2019-03-03T17:45:24.973Z,72.50
2019-03-03T17:47:53.667Z,72.50
2019-03-03T17:50:28.439Z,72.40
2019-03-03T17:52:57.123Z,72.60
2019-03-03T17:55:26.603Z,72.60
2019-03-03T17:57:55.031Z,72.50
2019-03-03T18:00:27.074Z,72.70
2019-03-03T18:02:56.064Z,72.50
2019-03-03T18:05:25.067Z,72.60
2019-03-03T18:07:53.905Z,72.30
2019-03-03T18:10:22.433Z,72.30
2019-03-03T18:12:50.826Z,72.40
2019-03-03T18:15:19.515Z,72.50
2019-03-03T18:17:50.218Z,72.70
2019-03-03T18:20:20.229Z,72.70
2019-03-03T18:22:49.475Z,72.60
2019-03-03T18:25:20.661Z,72.70
2019-03-03T18:27:49.971Z,72.80
2019-03-03T18:30:23.183Z,72.80
2019-03-03T18:32:51.579Z,72.90
2019-03-03T18:35:20.281Z,72.70
2019-03-03T18:37:48.693Z,72.80
2019-03-03T18:40:21.907Z,72.80
2019-03-03T18:42:50.757Z,72.70
2019-03-03T18:45:20.712Z,72.70
2019-03-03T18:47:49.493Z,72.80
2019-03-03T18:50:23.994Z,72.80
2019-03-03T18:52:52.885Z,72.80
2019-03-03T18:55:21.313Z,72.80
2019-03-03T18:57:49.700Z,72.80
2019-03-03T19:00:25.504Z,72.80
2019-03-03T19:02:54.356Z,72.80
2019-03-03T19:05:22.894Z,73.00
2019-03-03T19:07:51.329Z,72.70
2019-03-03T19:10:31.891Z,72.80
2019-03-03T19:13:00.304Z,72.80
2019-03-03T19:15:29.377Z,72.70
2019-03-03T19:17:57.790Z,72.90
2019-03-03T19:20:26.197Z,73.00
2019-03-03T19:22:54.927Z,72.90
2019-03-03T19:25:23.600Z,72.90
2019-03-03T19:27:52.011Z,72.90
2019-03-03T19:30:27.809Z,73.00
2019-03-03T19:33:05.744Z,73.00
2019-03-03T19:35:34.756Z,72.80
2019-03-03T19:38:03.295Z,72.90
2019-03-03T19:40:31.833Z,72.90
2019-03-03T19:43:00.580Z,72.80
2019-03-03T19:45:40.835Z,72.80
2019-03-03T19:48:10.049Z,72.70
2019-03-03T19:50:39.935Z,72.70
2019-03-03T19:53:09.100Z,72.80
2019-03-03T19:55:37.523Z,72.80
2019-03-03T19:58:07.634Z,72.90
2019-03-03T20:00:41.307Z,72.80
2019-03-03T20:03:10.535Z,72.80
2019-03-03T20:05:39.099Z,72.80
2019-03-03T20:08:07.874Z,72.80
2019-03-03T20:10:37.511Z,72.70
2019-03-03T20:13:06.590Z,72.70
2019-03-03T20:15:36.419Z,72.50
2019-03-03T20:18:07.269Z,72.40
2019-03-03T20:20:36.241Z,72.40
2019-03-03T20:23:04.727Z,72.40
2019-03-03T20:25:33.320Z,72.40
2019-03-03T20:28:01.804Z,72.20
2019-03-03T20:30:30.289Z,72.20
2019-03-03T20:32:58.703Z,72.10
2019-03-03T20:35:27.713Z,72.00
2019-03-03T20:37:56.289Z,71.90
2019-03-03T20:40:26.740Z,72.00
2019-03-03T20:42:56.100Z,71.70
2019-03-03T20:45:29.334Z,71.70
2019-03-03T20:47:57.825Z,71.70
2019-03-03T20:50:26.321Z,71.70
2019-03-03T20:52:55.080Z,71.60
2019-03-03T20:55:31.614Z,71.40
2019-03-03T20:58:00.331Z,71.20
2019-03-03T21:00:33.435Z,71.30
2019-03-03T21:03:02.200Z,71.50
2019-03-03T21:05:30.682Z,71.50
2019-03-03T21:07:59.101Z,71.50
2019-03-03T21:10:31.945Z,71.40
2019-03-03T21:13:01.043Z,71.60
2019-03-03T21:15:29.459Z,71.60
2019-03-03T21:17:58.203Z,71.90
2019-03-03T21:20:26.800Z,72.00
2019-03-03T21:22:55.206Z,72.00
2019-03-03T21:25:23.617Z,72.20
2019-03-03T21:27:52.328Z,72.30
2019-03-03T21:30:23.261Z,72.30
2019-03-03T21:32:52.033Z,72.20
2019-03-03T21:35:21.059Z,72.30
2019-03-03T21:37:49.650Z,72.00
2019-03-03T21:40:19.200Z,72.00
2019-03-03T21:42:48.226Z,72.20
2019-03-03T21:45:19.572Z,72.00
2019-03-03T21:47:48.458Z,72.00
2019-03-03T21:50:21.423Z,71.90
2019-03-03T21:52:49.836Z,71.90
2019-03-03T21:55:18.259Z,71.50
2019-03-03T21:57:46.731Z,71.30
2019-03-03T22:00:24.371Z,71.20
2019-03-03T22:02:53.049Z,71.20
2019-03-03T22:05:21.463Z,71.10
2019-03-03T22:07:49.946Z,71.10
2019-03-03T22:10:18.400Z,71.10
2019-03-03T22:12:47.195Z,71.00
2019-03-03T22:15:15.681Z,71.00
2019-03-03T22:17:44.145Z,71.10
2019-03-03T22:20:12.936Z,71.20
2019-03-03T22:22:41.371Z,71.20
2019-03-03T22:25:12.839Z,71.20
2019-03-03T22:27:41.652Z,71.20
2019-03-03T22:30:15.339Z,71.00
2019-03-03T22:32:43.786Z,70.80
2019-03-03T22:35:12.518Z,70.60
2019-03-03T22:37:40.944Z,70.70
2019-03-03T22:40:17.780Z,70.90
2019-03-03T22:42:46.219Z,71.00
2019-03-03T22:45:18.548Z,71.10
2019-03-03T22:47:47.132Z,71.10
2019-03-03T22:50:17.003Z,71.00
2019-03-03T22:52:45.816Z,71.10
2019-03-03T22:55:16.551Z,71.20
2019-03-03T22:57:45.326Z,71.30
2019-03-03T23:00:45.326Z,71.30
2019-03-03T23:03:17.403Z,71.20
2019-03-03T23:05:51.992Z,71.10
2019-03-03T23:08:26.068Z,71.00
2019-03-03T23:11:00.191Z,71.00
2019-03-03T23:13:40.043Z,70.70
2019-03-03T23:16:14.950Z,70.70
2019-03-03T23:19:05.437Z,70.70
2019-03-03T23:21:43.050Z,70.70
2019-03-03T23:24:29.730Z,70.70
2019-03-03T23:26:58.203Z,70.30
2019-03-03T23:29:26.678Z,70.10
2019-03-03T23:31:55.124Z,70.20
2019-03-03T23:34:23.554Z,70.30
2019-03-03T23:36:51.994Z,70.60
2019-03-03T23:39:20.435Z,70.50
2019-03-03T23:41:49.195Z,70.60
2019-03-03T23:44:17.983Z,70.60
2019-03-03T23:46:46.426Z,70.70
2019-03-03T23:49:16.052Z,70.70
2019-03-03T23:51:44.498Z,70.60
2019-03-03T23:54:12.939Z,70.60
2019-03-03T23:56:41.387Z,70.60
2019-03-03T23:59:09.848Z,70.70
